Terminal Aerodrome Forecast
Issued by NWS

Current Version | Previous Version | Text Only | Print | Product List | Glossary On
Versions: 1 2 3 4 5 6 7 8 9 10 11 12 13 14 15 16 17 18 19 20 21 22 23 24 25 26 27 28 29 30 31 32 33 34 35 36 37 38 39 40 41 42
000 FTUS42 KRAH 260538 TAFINT TAF KINT 260538Z 2606/2706 17006KT P6SM BKN250 FM260900 14006KT 5SM -RA BR OVC030 FM261500 33006KT P6SM -SHRA OVC025 FM270000 34011G20KT P6SM OVC035=

USA.gov is the U.S. government's official web portal to all federal, state and local government web resources and services.